Kennedale's Hourly Summary for Sunday, March 19, 2017
Hour Temp
(f)
RH
(%)
Solar Rad.
(MJ/m2)
Rainfall
(in)
Wind
(mph)
3/19/2017 12:00 AM 66 81 19.95 0 4.55
3/19/2017 1:00 AM 65 83 19.95 0 4.7
3/19/2017 2:00 AM 64 84 19.95 0 4.87
3/19/2017 3:00 AM 63 86 19.95 0 5.42
3/19/2017 4:00 AM 62 89 19.95 0 4.3
3/19/2017 5:00 AM 65 88 19.95 0 5.09
3/19/2017 6:00 AM 64 89 19.95 0 4.97
3/19/2017 7:00 AM 63 93 19.95 0 5.2
3/19/2017 8:00 AM 64 94 19.95 0 6.15
3/19/2017 9:00 AM 65 90 19.95 0 9.85
3/19/2017 10:00 AM 69 80 19.95 0 7.94
3/19/2017 11:00 AM 73 72 19.95 0 9.12
3/19/2017 12:00 PM 75 67 19.95 0 9.28
3/19/2017 1:00 PM 77 61 19.95 0 10.07
3/19/2017 2:00 PM 79 56 19.95 0 10.79
3/19/2017 3:00 PM 81 52 19.95 0 10.96
3/19/2017 4:00 PM 82 50 19.95 0 11.91
3/19/2017 5:00 PM 82 48 19.95 0 12.59
3/19/2017 6:00 PM 81 48 19.95 0 11.57
3/19/2017 7:00 PM 78 54 19.95 0 9.68
3/19/2017 8:00 PM 75 59 19.95 0 9.51
3/19/2017 9:00 PM 73 61 19.95 0 8.89
3/19/2017 10:00 PM 71 65 19.95 0 8.28
3/19/2017 11:00 PM 70 68 19.95 0 8.5
Data Summary 71 71 478.80 0.00 8.09